createdAt,value
2023-02-15T00:00:50.303Z,-1.60
2023-02-15T00:03:37.923Z,-1.60
2023-02-15T00:06:25.561Z,-1.70
2023-02-15T00:09:14.016Z,-1.70
2023-02-15T00:12:01.436Z,-1.70
2023-02-15T00:14:50.443Z,-1.70
2023-02-15T00:17:38.144Z,-1.70
2023-02-15T00:20:25.614Z,-1.70
2023-02-15T00:23:13.382Z,-1.70
2023-02-15T00:26:09.253Z,-1.80
2023-02-15T00:28:59.672Z,-1.80
2023-02-15T00:31:50.106Z,-1.80
2023-02-15T00:34:37.622Z,-1.80
2023-02-15T00:37:25.038Z,-1.80
2023-02-15T00:40:13.125Z,-1.80
2023-02-15T00:43:01.783Z,-1.80
2023-02-15T00:45:49.563Z,-1.90
2023-02-15T00:48:38.342Z,-1.90
2023-02-15T00:51:26.078Z,-1.90
2023-02-15T00:54:14.131Z,-2.00
2023-02-15T00:57:01.731Z,-2.10
2023-02-15T00:59:49.142Z,-2.10
2023-02-15T01:02:36.596Z,-2.20
2023-02-15T01:05:25.439Z,-2.30
2023-02-15T01:08:13.054Z,-2.30
2023-02-15T01:11:06.543Z,-2.40
2023-02-15T01:13:56.740Z,-2.50
2023-02-15T01:16:44.423Z,-2.60
2023-02-15T01:19:32.294Z,-2.60
2023-02-15T01:22:22.217Z,-2.70
2023-02-15T01:25:09.684Z,-2.70
2023-02-15T01:27:57.257Z,-2.70
2023-02-15T01:30:45.005Z,-2.80
2023-02-15T01:33:32.767Z,-2.80
2023-02-15T01:36:20.193Z,-2.90
2023-02-15T01:39:11.506Z,-2.90
2023-02-15T01:41:59.059Z,-2.90
2023-02-15T01:44:52.640Z,-2.90
2023-02-15T01:47:44.649Z,-3.00
2023-02-15T01:50:35.500Z,-3.00
2023-02-15T01:53:27.257Z,-3.00
2023-02-15T01:56:19.638Z,-3.10
2023-02-15T01:59:14.294Z,-3.10
2023-02-15T02:02:04.358Z,-3.10
2023-02-15T02:04:53.961Z,-3.10
2023-02-15T02:07:46.006Z,-3.10
2023-02-15T02:10:33.941Z,-3.10
2023-02-15T02:13:23.382Z,-3.20
2023-02-15T02:16:17.848Z,-3.20
2023-02-15T02:19:37.797Z,-3.30
2023-02-15T02:23:10.100Z,-3.30
2023-02-15T02:26:20.134Z,-3.30
2023-02-15T02:29:33.459Z,-3.40
2023-02-15T02:32:57.675Z,-3.40
2023-02-15T02:35:55.426Z,-3.50
2023-02-15T02:38:54.810Z,-3.40
2023-02-15T02:41:52.718Z,-3.40
2023-02-15T02:44:45.458Z,-3.50
2023-02-15T02:47:38.627Z,-3.50
2023-02-15T02:50:30.495Z,-3.50
2023-02-15T02:53:18.100Z,-3.50
2023-02-15T02:56:13.295Z,-3.50
2023-02-15T02:59:05.533Z,-3.50
2023-02-15T03:01:57.391Z,-3.40
2023-02-15T03:04:58.963Z,-3.40
2023-02-15T03:07:51.048Z,-3.40
2023-02-15T03:10:41.353Z,-3.40
2023-02-15T03:13:29.920Z,-3.40
2023-02-15T03:16:29.769Z,-3.40
2023-02-15T03:19:24.470Z,-3.30
2023-02-15T03:22:17.170Z,-3.30
2023-02-15T03:25:10.778Z,-3.30
2023-02-15T03:28:04.103Z,-3.20
2023-02-15T03:30:55.762Z,-3.20
2023-02-15T03:33:51.064Z,-3.10
2023-02-15T03:36:45.690Z,-3.20
2023-02-15T03:39:37.202Z,-3.20
2023-02-15T03:42:31.112Z,-3.20
2023-02-15T03:45:25.417Z,-3.30
2023-02-15T03:48:13.489Z,-3.30
2023-02-15T03:51:22.230Z,-3.30
2023-02-15T03:54:12.121Z,-3.30
2023-02-15T03:57:14.108Z,-3.30
2023-02-15T04:00:24.013Z,-3.40
2023-02-15T04:03:23.937Z,-3.40
2023-02-15T04:06:11.731Z,-3.40
2023-02-15T04:09:16.701Z,-3.40
2023-02-15T04:12:04.354Z,-3.40
2023-02-15T04:15:09.356Z,-3.30
2023-02-15T04:17:58.337Z,-3.30
2023-02-15T04:21:03.710Z,-3.10
2023-02-15T04:24:08.517Z,-3.00
2023-02-15T04:26:56.971Z,-2.80
2023-02-15T04:29:44.486Z,-2.70
2023-02-15T04:32:31.902Z,-2.60
2023-02-15T04:35:21.393Z,-2.50
2023-02-15T04:38:09.170Z,-2.40
2023-02-15T04:40:56.732Z,-2.30
2023-02-15T04:43:44.506Z,-2.20
2023-02-15T04:46:32.335Z,-2.10
2023-02-15T04:49:19.861Z,-1.90
2023-02-15T04:52:08.831Z,-1.80
2023-02-15T04:54:56.667Z,-1.80
2023-02-15T04:57:44.333Z,-1.80
2023-02-15T05:00:31.660Z,-1.80
2023-02-15T05:03:19.751Z,-1.80
2023-02-15T05:06:07.503Z,-1.80
2023-02-15T05:08:57.116Z,-1.80
2023-02-15T05:11:47.637Z,-1.70
2023-02-15T05:14:35.292Z,-1.70
2023-02-15T05:17:22.642Z,-1.70
2023-02-15T05:20:10.895Z,-1.70
2023-02-15T05:22:58.415Z,-1.70
2023-02-15T05:26:08.332Z,-1.70
2023-02-15T05:28:55.907Z,-1.70
2023-02-15T05:31:48.523Z,-1.70
2023-02-15T05:34:35.982Z,-1.80
2023-02-15T05:37:23.563Z,-1.80
2023-02-15T05:40:11.872Z,-1.90
2023-02-15T05:43:00.609Z,-1.90
2023-02-15T05:45:48.032Z,-2.00
2023-02-15T05:48:36.277Z,-2.00
2023-02-15T05:51:24.296Z,-2.00
2023-02-15T05:54:11.836Z,-2.10
2023-02-15T05:56:59.429Z,-2.10
2023-02-15T05:59:48.292Z,-2.20
2023-02-15T06:02:36.730Z,-2.20
2023-02-15T06:05:24.433Z,-2.20
2023-02-15T06:08:12.180Z,-2.20
2023-02-15T06:10:59.768Z,-2.30
2023-02-15T06:13:47.529Z,-2.30
2023-02-15T06:16:36.304Z,-2.40
2023-02-15T06:19:24.246Z,-2.40
2023-02-15T06:22:15.011Z,-2.30
2023-02-15T06:25:02.614Z,-2.30
2023-02-15T06:27:50.361Z,-2.30
2023-02-15T06:30:38.228Z,-2.20
2023-02-15T06:33:27.457Z,-2.10
2023-02-15T06:36:15.078Z,-2.00
2023-02-15T06:39:03.243Z,-2.00
2023-02-15T06:41:50.782Z,-1.90
2023-02-15T06:44:38.460Z,-1.80
2023-02-15T06:47:25.946Z,-1.70
2023-02-15T06:50:15.060Z,-1.60
2023-02-15T06:53:02.662Z,-1.60
2023-02-15T06:55:50.029Z,-1.50
2023-02-15T06:58:37.551Z,-1.40
2023-02-15T07:01:25.220Z,-1.30
2023-02-15T07:04:12.651Z,-1.20
2023-02-15T07:07:01.639Z,-1.10
2023-02-15T07:09:49.404Z,-1.00
2023-02-15T07:12:46.704Z,-0.90
2023-02-15T07:15:34.458Z,-0.80
2023-02-15T07:18:22.081Z,-0.60
2023-02-15T07:21:09.871Z,-0.50
2023-02-15T07:24:00.495Z,-0.40
2023-02-15T07:26:48.078Z,-0.30
2023-02-15T07:29:35.735Z,-0.20
2023-02-15T07:32:23.572Z,0.00
2023-02-15T07:35:10.906Z,0.20
2023-02-15T07:37:58.410Z,0.40
2023-02-15T07:40:47.716Z,0.60
2023-02-15T07:43:37.183Z,0.70
2023-02-15T07:46:24.719Z,0.90
2023-02-15T07:49:12.487Z,1.10
2023-02-15T07:52:00.007Z,1.30
2023-02-15T07:54:47.430Z,1.50
2023-02-15T07:57:36.160Z,1.60
2023-02-15T08:00:26.009Z,1.70
2023-02-15T08:03:16.500Z,1.80
2023-02-15T08:06:04.539Z,2.00
2023-02-15T08:08:52.186Z,2.00
2023-02-15T08:11:41.930Z,2.10
2023-02-15T08:14:30.905Z,2.10
2023-02-15T08:17:18.220Z,2.10
2023-02-15T08:20:06.542Z,2.20
2023-02-15T08:22:54.069Z,2.30
2023-02-15T08:25:41.551Z,2.40
2023-02-15T08:28:29.034Z,2.50
2023-02-15T08:31:18.311Z,2.60
2023-02-15T08:34:06.556Z,2.70
2023-02-15T08:36:54.082Z,2.80
2023-02-15T08:39:42.825Z,2.90
2023-02-15T08:42:30.193Z,3.00
2023-02-15T08:45:18.155Z,3.10
2023-02-15T08:48:07.198Z,3.30
2023-02-15T08:50:55.012Z,3.40
2023-02-15T08:53:44.975Z,3.50
2023-02-15T08:56:35.270Z,3.50
2023-02-15T08:59:25.196Z,3.70
2023-02-15T09:02:13.210Z,3.80
2023-02-15T09:05:02.598Z,3.90
2023-02-15T09:07:50.036Z,4.10
2023-02-15T09:10:37.791Z,4.30
2023-02-15T09:13:25.289Z,4.40
2023-02-15T09:16:12.901Z,4.50
2023-02-15T09:19:00.369Z,4.60
2023-02-15T09:21:49.768Z,4.70
2023-02-15T09:24:37.314Z,4.80
2023-02-15T09:27:24.632Z,4.90
2023-02-15T09:30:13.413Z,5.10
2023-02-15T09:33:00.853Z,5.30
2023-02-15T09:35:48.450Z,5.50
2023-02-15T09:38:37.118Z,5.70
2023-02-15T09:41:53.625Z,5.80
2023-02-15T09:45:06.630Z,5.90
2023-02-15T09:48:22.348Z,6.00
2023-02-15T09:51:34.315Z,6.00
2023-02-15T09:54:37.927Z,6.20
2023-02-15T09:57:32.006Z,6.30
2023-02-15T10:00:30.750Z,6.40
2023-02-15T10:03:47.422Z,6.50
2023-02-15T10:06:43.091Z,6.50
2023-02-15T10:09:52.064Z,6.50
2023-02-15T10:12:50.461Z,6.60
2023-02-15T10:15:53.181Z,6.60
2023-02-15T10:18:51.302Z,6.80
2023-02-15T10:21:52.601Z,6.90
2023-02-15T10:24:57.887Z,7.00
2023-02-15T10:27:48.934Z,7.10
2023-02-15T10:30:45.864Z,7.30
2023-02-15T10:33:41.458Z,7.40
2023-02-15T10:36:42.563Z,7.50
2023-02-15T10:39:41.601Z,7.50
2023-02-15T10:42:39.193Z,7.60
2023-02-15T10:45:34.069Z,7.80
2023-02-15T10:48:41.929Z,8.00
2023-02-15T10:51:42.270Z,8.10
2023-02-15T10:54:38.596Z,8.10
2023-02-15T10:57:36.336Z,8.20
2023-02-15T11:00:32.307Z,8.20
2023-02-15T11:03:50.128Z,8.30
2023-02-15T11:06:41.593Z,8.30
2023-02-15T11:09:41.077Z,8.40
2023-02-15T11:12:33.068Z,8.50
2023-02-15T11:15:27.183Z,8.60
2023-02-15T11:18:18.625Z,8.50
2023-02-15T11:21:10.913Z,8.40
2023-02-15T11:23:58.629Z,8.50
2023-02-15T11:26:50.717Z,8.60
2023-02-15T11:29:43.832Z,8.60
2023-02-15T11:32:34.426Z,8.70
2023-02-15T11:35:28.432Z,8.90
2023-02-15T11:38:20.914Z,9.20
2023-02-15T11:41:12.747Z,9.50
2023-02-15T11:44:07.617Z,9.60
2023-02-15T11:46:56.455Z,9.60
2023-02-15T11:49:44.263Z,9.60
2023-02-15T11:52:32.453Z,9.60
2023-02-15T11:55:23.095Z,9.60
2023-02-15T11:58:29.265Z,9.60
2023-02-15T12:01:22.281Z,9.50
2023-02-15T12:04:18.272Z,9.70
2023-02-15T12:07:16.225Z,9.90
2023-02-15T12:10:08.168Z,10.00
2023-02-15T12:13:12.648Z,10.20
2023-02-15T12:16:07.500Z,10.20
2023-02-15T12:18:58.594Z,10.20
2023-02-15T12:21:52.404Z,10.10
2023-02-15T12:24:47.153Z,10.10
2023-02-15T12:27:36.822Z,10.20
2023-02-15T12:30:29.788Z,10.30
2023-02-15T12:33:23.883Z,10.40
2023-02-15T12:36:17.943Z,10.50
2023-02-15T12:39:21.927Z,10.50
2023-02-15T12:42:20.366Z,10.60
2023-02-15T12:45:25.789Z,10.50
2023-02-15T12:48:18.772Z,10.50
2023-02-15T12:51:11.625Z,10.40
2023-02-15T12:54:02.021Z,10.40
2023-02-15T12:56:51.065Z,10.50
2023-02-15T12:59:39.721Z,10.60
2023-02-15T13:02:36.307Z,10.60
2023-02-15T13:05:28.640Z,10.70
2023-02-15T13:08:18.861Z,10.90
2023-02-15T13:11:10.679Z,11.00
2023-02-15T13:14:02.501Z,10.80
2023-02-15T13:16:54.077Z,10.70
2023-02-15T13:19:45.315Z,10.70
2023-02-15T13:22:40.374Z,10.70
2023-02-15T13:25:31.642Z,10.60
2023-02-15T13:28:22.655Z,10.70
2023-02-15T13:31:16.905Z,10.90
2023-02-15T13:34:11.852Z,11.00
2023-02-15T13:37:09.302Z,11.00
2023-02-15T13:40:03.797Z,11.10
2023-02-15T13:42:56.856Z,11.10
2023-02-15T13:46:00.991Z,11.20
2023-02-15T13:49:01.822Z,11.20
2023-02-15T13:52:00.620Z,11.20
2023-02-15T13:55:02.061Z,11.20
2023-02-15T13:58:11.617Z,11.10
2023-02-15T14:01:10.725Z,11.00
2023-02-15T14:04:24.703Z,11.10
2023-02-15T14:07:35.783Z,11.10
2023-02-15T14:10:46.351Z,11.10
2023-02-15T14:14:03.140Z,11.10
2023-02-15T14:17:06.819Z,11.30
2023-02-15T14:20:00.077Z,11.50
2023-02-15T14:22:52.901Z,11.50
2023-02-15T14:25:43.407Z,11.50
2023-02-15T14:28:40.532Z,11.40
2023-02-15T14:31:31.160Z,11.30
2023-02-15T14:34:24.910Z,11.20
2023-02-15T14:37:15.853Z,11.10
2023-02-15T14:40:26.089Z,11.20
2023-02-15T14:43:21.489Z,11.30
2023-02-15T14:46:19.195Z,11.40
2023-02-15T14:49:13.240Z,11.50
2023-02-15T14:52:06.010Z,11.30
2023-02-15T14:55:06.481Z,11.20
2023-02-15T14:57:59.423Z,11.30
2023-02-15T15:00:47.157Z,11.40
2023-02-15T15:03:36.552Z,11.30
2023-02-15T15:06:29.129Z,11.30
2023-02-15T15:09:24.903Z,11.40
2023-02-15T15:12:33.117Z,11.50
2023-02-15T15:15:39.653Z,11.20
2023-02-15T15:18:42.923Z,10.50
2023-02-15T15:21:56.403Z,9.80
2023-02-15T15:24:55.052Z,9.00
2023-02-15T15:27:55.458Z,8.40
2023-02-15T15:31:04.409Z,8.10
2023-02-15T15:34:27.016Z,7.80
2023-02-15T15:37:53.430Z,7.50
2023-02-15T15:41:10.969Z,7.30
2023-02-15T15:44:41.405Z,7.10
2023-02-15T15:47:41.968Z,6.90
2023-02-15T15:50:29.527Z,6.70
2023-02-15T15:53:22.486Z,6.50
2023-02-15T15:56:14.552Z,6.40
2023-02-15T15:59:04.527Z,6.20
2023-02-15T16:01:53.550Z,6.10
2023-02-15T16:04:41.099Z,5.90
2023-02-15T16:07:28.814Z,5.70
2023-02-15T16:10:25.904Z,5.60
2023-02-15T16:13:16.463Z,5.50
2023-02-15T16:16:05.019Z,5.30
2023-02-15T16:18:54.744Z,5.20
2023-02-15T16:21:42.709Z,5.10
2023-02-15T16:24:56.763Z,4.90
2023-02-15T16:27:45.195Z,4.80
2023-02-15T16:30:34.544Z,4.60
2023-02-15T16:33:22.225Z,4.40
2023-02-15T16:36:15.255Z,4.30
2023-02-15T16:39:19.906Z,4.10
2023-02-15T16:42:07.734Z,3.90
2023-02-15T16:45:01.781Z,3.80
2023-02-15T16:47:52.525Z,3.60
2023-02-15T16:50:40.934Z,3.50
2023-02-15T16:53:31.119Z,3.30
2023-02-15T16:56:25.028Z,3.20
2023-02-15T16:59:23.914Z,3.10
2023-02-15T17:02:40.187Z,3.00
2023-02-15T17:05:25.482Z,2.80
2023-02-15T17:08:18.561Z,2.60
2023-02-15T17:11:17.985Z,2.50
2023-02-15T17:14:28.764Z,2.40
2023-02-15T17:17:17.694Z,2.20
2023-02-15T17:20:05.892Z,2.10
2023-02-15T17:22:54.599Z,2.00
2023-02-15T17:25:44.288Z,1.90
2023-02-15T17:28:33.990Z,1.80
2023-02-15T17:31:23.436Z,1.70
2023-02-15T17:34:49.085Z,1.60
2023-02-15T17:37:47.227Z,1.50
2023-02-15T17:40:36.107Z,1.40
2023-02-15T17:43:23.977Z,1.30
2023-02-15T17:46:13.779Z,1.20
2023-02-15T17:49:01.606Z,1.10
2023-02-15T17:51:49.401Z,1.00
2023-02-15T17:54:59.809Z,0.90
2023-02-15T17:57:47.608Z,0.90
2023-02-15T18:00:56.431Z,0.80
2023-02-15T18:04:06.458Z,0.70
2023-02-15T18:07:11.879Z,0.60
2023-02-15T18:10:16.936Z,0.50
2023-02-15T18:13:04.593Z,0.40
2023-02-15T18:15:52.071Z,0.40
2023-02-15T18:18:40.008Z,0.30
2023-02-15T18:21:29.349Z,0.30
2023-02-15T18:24:22.069Z,0.20
2023-02-15T18:27:09.774Z,0.20
2023-02-15T18:29:57.283Z,0.10
2023-02-15T18:32:46.333Z,0.10
2023-02-15T18:35:34.865Z,0.00
2023-02-15T18:38:23.466Z,0.00
2023-02-15T18:41:17.292Z,-0.10
2023-02-15T18:44:10.362Z,-0.10
2023-02-15T18:46:57.682Z,-0.20
2023-02-15T18:49:45.268Z,-0.30
2023-02-15T18:52:35.627Z,-0.30
2023-02-15T18:55:27.890Z,-0.40
2023-02-15T18:58:18.464Z,-0.40
2023-02-15T19:01:06.519Z,-0.50
2023-02-15T19:03:54.031Z,-0.50
2023-02-15T19:06:46.387Z,-0.50
2023-02-15T19:09:34.447Z,-0.60
2023-02-15T19:12:23.552Z,-0.60
2023-02-15T19:15:17.051Z,-0.70
2023-02-15T19:18:05.258Z,-0.70
2023-02-15T19:20:52.506Z,-0.70
2023-02-15T19:23:39.950Z,-0.80
2023-02-15T19:26:44.634Z,-0.80
2023-02-15T19:29:34.338Z,-0.80
2023-02-15T19:32:22.093Z,-0.80
2023-02-15T19:35:15.571Z,-0.80
2023-02-15T19:38:06.108Z,-0.80
2023-02-15T19:40:54.196Z,-0.80
2023-02-15T19:43:41.560Z,-0.90
2023-02-15T19:46:30.525Z,-0.90
2023-02-15T19:49:18.201Z,-0.90
2023-02-15T19:52:05.963Z,-0.90
2023-02-15T19:54:55.734Z,-1.00
2023-02-15T19:57:43.352Z,-1.00
2023-02-15T20:00:32.758Z,-1.10
2023-02-15T20:03:21.466Z,-1.10
2023-02-15T20:06:14.734Z,-1.20
2023-02-15T20:09:02.485Z,-1.20
2023-02-15T20:11:49.953Z,-1.20
2023-02-15T20:14:37.565Z,-1.30
2023-02-15T20:17:25.354Z,-1.30
2023-02-15T20:20:15.386Z,-1.30
2023-02-15T20:23:02.862Z,-1.30
2023-02-15T20:25:50.706Z,-1.30
2023-02-15T20:28:38.650Z,-1.40
2023-02-15T20:31:26.552Z,-1.40
2023-02-15T20:34:14.417Z,-1.40
2023-02-15T20:37:03.721Z,-1.40
2023-02-15T20:39:52.403Z,-1.50
2023-02-15T20:42:40.085Z,-1.50
2023-02-15T20:45:30.349Z,-1.50
2023-02-15T20:48:18.016Z,-1.60
2023-02-15T20:51:06.628Z,-1.60
2023-02-15T20:53:55.787Z,-1.60
2023-02-15T20:56:43.819Z,-1.60
2023-02-15T20:59:33.493Z,-1.70
2023-02-15T21:02:23.979Z,-1.70
2023-02-15T21:05:17.403Z,-1.70
2023-02-15T21:08:14.864Z,-1.80
2023-02-15T21:11:04.322Z,-1.80
2023-02-15T21:13:53.055Z,-1.80
2023-02-15T21:16:40.476Z,-1.80
2023-02-15T21:19:28.676Z,-1.80
2023-02-15T21:22:17.970Z,-1.80
2023-02-15T21:25:05.910Z,-1.90
2023-02-15T21:27:54.742Z,-1.90
2023-02-15T21:30:42.392Z,-1.90
2023-02-15T21:33:30.071Z,-1.90
2023-02-15T21:36:20.072Z,-2.00
2023-02-15T21:39:08.123Z,-2.00
2023-02-15T21:42:14.654Z,-2.10
2023-02-15T21:45:17.361Z,-2.10
2023-02-15T21:48:05.195Z,-2.10
2023-02-15T21:51:10.124Z,-2.20
2023-02-15T21:53:57.516Z,-2.20
2023-02-15T21:56:45.682Z,-2.20
2023-02-15T21:59:33.112Z,-2.30
2023-02-15T22:02:28.560Z,-2.30
2023-02-15T22:05:18.128Z,-2.30
2023-02-15T22:08:10.512Z,-2.30
2023-02-15T22:10:58.688Z,-2.30
2023-02-15T22:13:46.883Z,-2.30
2023-02-15T22:16:34.665Z,-2.30
2023-02-15T22:19:23.476Z,-2.40
2023-02-15T22:22:10.974Z,-2.40
2023-02-15T22:24:58.705Z,-2.50
2023-02-15T22:27:47.291Z,-2.60
2023-02-15T22:30:38.539Z,-2.60
2023-02-15T22:33:29.172Z,-2.70
2023-02-15T22:36:25.180Z,-2.70
2023-02-15T22:39:12.736Z,-2.80
2023-02-15T22:42:00.145Z,-2.80
2023-02-15T22:44:48.566Z,-2.90
2023-02-15T22:47:37.986Z,-2.90
2023-02-15T22:50:27.790Z,-2.90
2023-02-15T22:53:16.972Z,-2.90
2023-02-15T22:56:08.789Z,-2.90
2023-02-15T22:59:01.819Z,-2.90
2023-02-15T23:01:50.081Z,-2.90
2023-02-15T23:04:38.100Z,-2.90
2023-02-15T23:07:25.762Z,-2.90
2023-02-15T23:10:22.184Z,-2.90
2023-02-15T23:13:26.118Z,-2.90
2023-02-15T23:16:16.520Z,-2.90
2023-02-15T23:19:04.256Z,-2.90
2023-02-15T23:21:52.083Z,-2.90
2023-02-15T23:24:40.513Z,-2.90
2023-02-15T23:27:47.019Z,-2.80
2023-02-15T23:30:35.103Z,-2.80
2023-02-15T23:33:25.009Z,-2.80
2023-02-15T23:36:26.439Z,-2.90
2023-02-15T23:39:34.050Z,-3.00
2023-02-15T23:42:26.010Z,-3.00
2023-02-15T23:45:23.248Z,-3.10
2023-02-15T23:48:33.289Z,-3.20
2023-02-15T23:51:21.080Z,-3.20
2023-02-15T23:54:08.795Z,-3.30
2023-02-15T23:57:00.602Z,-3.30
2023-02-15T23:59:48.064Z,-3.30
